Time;durP1;ratioP1;P1;durP2;ratioP2;P2;SDS_P1;SDS_P2;PMS_P1;PMS_P2;Temp;Humidity;BMP_temperature;BMP_pressure;BME280_temperature;BME280_humidity;BME280_pressure;Samples;Min_cycle;Max_cycle;Signal;HPM_P1;HPM_P2
2023/12/04 00:00:15;;;;;;;32.88;20.95;;;-3.10;1.00;;;;;;5152520;27;20328;-77
2023/12/04 00:02:43;;;;;;;31.15;21.38;;;-3.10;1.00;;;;;;5153886;27;20234;-77
2023/12/04 00:05:10;;;;;;;29.75;20.00;;;-3.20;1.00;;;;;;5152666;27;20238;-76
2023/12/04 00:07:38;;;;;;;26.00;19.27;;;-3.20;1.00;;;;;;5150016;27;21077;-78
2023/12/04 00:10:06;;;;;;;28.17;19.55;;;-3.10;1.00;;;;;;5152910;27;21076;-76
2023/12/04 00:12:33;;;;;;;31.08;21.48;;;-3.20;1.00;;;;;;5150857;27;20229;-77
2023/12/04 00:15:00;;;;;;;29.77;20.50;;;-3.20;1.00;;;;;;5157859;27;20237;-78
2023/12/04 00:17:30;;;;;;;31.92;19.77;;;-3.20;1.00;;;;;;5154951;27;20279;-76
2023/12/04 00:20:00;;;;;;;29.35;20.02;;;-3.10;1.00;;;;;;5150889;27;20957;-77
2023/12/04 00:22:28;;;;;;;31.85;22.30;;;-3.20;1.00;;;;;;5149548;27;20789;-76
2023/12/04 00:24:58;;;;;;;29.67;19.95;;;-3.10;1.00;;;;;;5155196;27;21488;-77
2023/12/04 00:27:27;;;;;;;27.95;18.75;;;-3.10;1.00;;;;;;5148243;27;21046;-77
2023/12/04 00:29:58;;;;;;;33.80;19.90;;;-3.10;1.00;;;;;;5150752;27;20242;-76
2023/12/04 00:32:25;;;;;;;32.30;20.10;;;-3.20;1.00;;;;;;5149864;27;20237;-76
2023/12/04 00:34:52;;;;;;;32.40;22.42;;;-3.20;1.00;;;;;;5150539;27;20987;-77
2023/12/04 00:37:22;;;;;;;33.90;21.50;;;-3.20;1.00;;;;;;5153502;27;20234;-76
2023/12/04 00:39:50;;;;;;;27.65;19.73;;;-3.20;1.00;;;;;;5150618;27;20238;-78
2023/12/04 00:42:19;;;;;;;30.30;20.88;;;-3.20;1.00;;;;;;5152139;27;20333;-76
2023/12/04 00:44:46;;;;;;;32.10;19.23;;;-3.10;1.00;;;;;;5153634;27;20343;-76
2023/12/04 00:47:13;;;;;;;30.15;19.58;;;-3.10;1.00;;;;;;5154622;27;20300;-76
2023/12/04 00:49:40;;;;;;;29.75;20.30;;;-3.10;1.00;;;;;;5150369;27;20267;-78
2023/12/04 00:52:07;;;;;;;26.23;18.67;;;-3.20;1.00;;;;;;5154203;27;20238;-76
2023/12/04 00:54:35;;;;;;;25.05;19.90;;;-3.20;1.00;;;;;;5155787;27;20246;-76
2023/12/04 00:57:04;;;;;;;30.25;21.13;;;-3.20;1.00;;;;;;5149643;27;20254;-76
2023/12/04 00:59:32;;;;;;;29.50;20.83;;;-3.20;1.00;;;;;;5153437;27;20230;-77
2023/12/04 01:02:04;;;;;;;32.30;19.40;;;-3.20;1.00;;;;;;5151030;27;21069;-77
2023/12/04 01:04:34;;;;;;;32.35;20.95;;;-3.20;1.00;;;;;;5146146;27;20252;-77
2023/12/04 01:07:02;;;;;;;32.85;20.45;;;-3.20;1.00;;;;;;5149036;27;21085;-78
2023/12/04 01:09:29;;;;;;;28.42;20.75;;;-3.20;1.00;;;;;;5153854;27;20713;-77
2023/12/04 01:12:01;;;;;;;29.65;20.38;;;-3.20;1.00;;;;;;5151880;27;20226;-77
2023/12/04 01:14:28;;;;;;;30.27;20.73;;;-3.30;1.00;;;;;;5153068;27;20300;-77
2023/12/04 01:16:55;;;;;;;35.90;21.40;;;-3.40;1.00;;;;;;5150003;27;20298;-78
2023/12/04 01:19:25;;;;;;;33.58;22.95;;;-3.40;1.00;;;;;;5153679;27;21238;-76
2023/12/04 01:21:52;;;;;;;31.85;21.23;;;-3.50;1.00;;;;;;5153641;27;20261;-76
2023/12/04 01:24:19;;;;;;;31.52;21.38;;;-3.50;1.00;;;;;;5153071;27;20222;-76
2023/12/04 01:26:46;;;;;;;28.92;19.02;;;-3.50;1.00;;;;;;5148967;27;20249;-76
2023/12/04 01:29:15;;;;;;;34.97;20.77;;;-3.50;1.00;;;;;;5152371;27;22268;-76
2023/12/04 01:31:42;;;;;;;29.40;20.33;;;-3.50;1.00;;;;;;5150280;27;20254;-77
2023/12/04 01:34:09;;;;;;;32.72;20.73;;;-3.50;1.00;;;;;;5153644;27;20258;-76
2023/12/04 01:36:37;;;;;;;34.00;21.67;;;-3.40;1.00;;;;;;5153602;27;20984;-76
2023/12/04 01:39:04;;;;;;;33.35;21.20;;;-3.40;1.00;;;;;;5151775;27;21015;-76
2023/12/04 01:41:31;;;;;;;28.85;19.92;;;-3.40;1.00;;;;;;5152356;27;20245;-76
2023/12/04 01:44:00;;;;;;;34.30;21.85;;;-3.40;1.00;;;;;;5155378;27;20318;-76
2023/12/04 01:46:28;;;;;;;33.00;22.23;;;-3.40;1.00;;;;;;5154835;27;20240;-76
2023/12/04 01:48:55;;;;;;;29.80;20.55;;;-3.40;1.00;;;;;;5144554;27;20262;-76
2023/12/04 01:51:27;;;;;;;32.47;20.58;;;-3.40;1.00;;;;;;5150789;27;20230;-76
2023/12/04 01:53:54;;;;;;;30.27;20.80;;;-3.40;1.00;;;;;;5153536;27;20265;-78
2023/12/04 01:56:24;;;;;;;32.05;22.73;;;-3.40;1.00;;;;;;5145656;27;20237;-77
2023/12/04 01:58:51;;;;;;;32.55;22.58;;;-3.40;1.00;;;;;;5150257;27;20362;-79
2023/12/04 02:01:20;;;;;;;32.10;21.85;;;-3.30;1.00;;;;;;5154099;27;20237;-77
2023/12/04 02:03:48;;;;;;;30.90;20.48;;;-3.30;1.00;;;;;;5152572;27;20261;-78
2023/12/04 02:06:17;;;;;;;30.90;21.45;;;-3.30;1.00;;;;;;5157204;27;20231;-79
2023/12/04 02:08:44;;;;;;;33.40;20.33;;;-3.30;1.00;;;;;;5157631;27;20230;-78
2023/12/04 02:11:12;;;;;;;32.55;21.13;;;-3.30;1.00;;;;;;5159066;27;20233;-79
2023/12/04 02:13:40;;;;;;;35.78;22.13;;;-3.30;1.00;;;;;;5160537;27;20285;-79
2023/12/04 02:16:12;;;;;;;30.20;20.90;;;-3.30;1.00;;;;;;5158530;27;20239;-80
2023/12/04 02:18:39;;;;;;;31.80;21.85;;;-3.30;1.00;;;;;;5160068;27;20227;-79
2023/12/04 02:21:08;;;;;;;32.72;21.50;;;-3.30;1.00;;;;;;5161423;27;20249;-79
2023/12/04 02:23:35;;;;;;;32.97;20.42;;;-3.30;1.00;;;;;;5158078;27;20234;-79
2023/12/04 02:26:10;;;;;;;35.38;19.92;;;-3.30;1.00;;;;;;5159066;27;20229;-79
2023/12/04 02:28:39;;;;;;;29.65;19.70;;;-3.40;1.00;;;;;;5159957;27;20241;-80
2023/12/04 02:31:08;;;;;;;28.58;20.90;;;-3.40;1.00;;;;;;5156320;27;20237;-78
2023/12/04 02:33:36;;;;;;;31.38;21.15;;;-3.40;1.00;;;;;;5159779;27;20222;-81
2023/12/04 02:36:06;;;;;;;32.83;21.23;;;-3.40;1.00;;;;;;5154677;27;20254;-80
2023/12/04 02:38:34;;;;;;;31.40;22.13;;;-3.40;1.00;;;;;;5152711;27;20290;-78
2023/12/04 02:41:01;;;;;;;40.50;23.17;;;-3.40;1.00;;;;;;5157241;27;20302;-80
2023/12/04 02:43:33;;;;;;;38.75;21.65;;;-3.40;1.00;;;;;;5156887;27;20721;-80
2023/12/04 02:46:00;;;;;;;34.65;22.55;;;-3.50;1.00;;;;;;5160044;27;20226;-79
2023/12/04 02:48:27;;;;;;;37.08;24.30;;;-3.50;1.00;;;;;;5159374;27;20234;-78
2023/12/04 02:50:54;;;;;;;33.95;22.38;;;-3.50;1.00;;;;;;5156393;27;20234;-81
2023/12/04 02:53:21;;;;;;;35.13;23.33;;;-3.60;1.00;;;;;;5156886;27;20225;-79
2023/12/04 02:55:51;;;;;;;36.08;22.63;;;-3.60;1.00;;;;;;5155923;27;20249;-78
2023/12/04 02:58:19;;;;;;;37.08;23.58;;;-3.60;1.00;;;;;;5155817;27;20523;-78
2023/12/04 03:00:48;;;;;;;34.85;24.08;;;-3.60;1.00;;;;;;5156923;27;20233;-79
2023/12/04 03:03:15;;;;;;;31.63;22.10;;;-3.60;1.00;;;;;;5159472;27;20230;-79
2023/12/04 03:05:42;;;;;;;38.75;23.17;;;-3.50;1.00;;;;;;5160693;27;20242;-79
2023/12/04 03:08:08;;;;;;;36.05;23.30;;;-3.60;1.00;;;;;;5154246;27;20291;-78
2023/12/04 03:10:35;;;;;;;31.85;22.20;;;-3.60;1.00;;;;;;5155884;27;20289;-79
2023/12/04 03:13:02;;;;;;;33.50;21.10;;;-3.70;1.00;;;;;;5158926;27;20237;-80
2023/12/04 03:15:30;;;;;;;36.15;22.48;;;-3.70;1.00;;;;;;5160341;27;20242;-79
2023/12/04 03:18:00;;;;;;;39.20;22.65;;;-3.70;1.00;;;;;;5154325;27;20970;-77
2023/12/04 03:20:28;;;;;;;33.63;21.55;;;-3.70;1.00;;;;;;5158155;27;20678;-77
2023/12/04 03:22:56;;;;;;;34.88;23.38;;;-3.70;1.00;;;;;;5156850;27;20234;-77
2023/12/04 03:25:23;;;;;;;37.28;22.42;;;-3.80;1.00;;;;;;5158745;27;20263;-77
2023/12/04 03:27:50;;;;;;;32.05;22.15;;;-3.80;1.00;;;;;;5149730;27;20268;-77
2023/12/04 03:30:17;;;;;;;32.80;22.23;;;-3.70;1.00;;;;;;5165277;27;20266;-78
2023/12/04 03:32:45;;;;;;;30.60;20.10;;;-3.70;1.00;;;;;;5150074;27;20239;-77
2023/12/04 03:35:14;;;;;;;31.83;20.83;;;-3.70;1.00;;;;;;5151841;27;20301;-78
2023/12/04 03:37:41;;;;;;;36.13;22.05;;;-3.80;1.00;;;;;;5154321;27;21082;-77
2023/12/04 03:40:10;;;;;;;29.58;21.83;;;-3.80;1.00;;;;;;5152524;27;20282;-79
2023/12/04 03:42:37;;;;;;;29.48;21.00;;;-3.80;1.00;;;;;;5154409;27;20242;-77
2023/12/04 03:45:06;;;;;;;31.25;21.15;;;-3.80;1.00;;;;;;5154506;27;20230;-76
2023/12/04 03:47:33;;;;;;;32.17;21.27;;;-3.80;1.00;;;;;;5155293;27;20229;-76
2023/12/04 03:50:00;;;;;;;29.15;20.25;;;-3.80;1.00;;;;;;5153159;27;20252;-75
2023/12/04 03:52:31;;;;;;;32.28;19.35;;;-3.70;1.00;;;;;;5149822;27;20976;-77
2023/12/04 03:54:58;;;;;;;35.72;22.73;;;-3.70;1.00;;;;;;5152293;27;20245;-76
2023/12/04 03:57:26;;;;;;;33.65;20.88;;;-3.70;1.00;;;;;;5153898;27;20265;-78
2023/12/04 03:59:53;;;;;;;36.22;21.70;;;-3.60;1.00;;;;;;5153128;27;20291;-76
2023/12/04 04:02:20;;;;;;;36.17;21.80;;;-3.70;1.00;;;;;;5151093;27;20238;-76
2023/12/04 04:04:50;;;;;;;34.33;21.60;;;-3.70;1.00;;;;;;5151174;27;20260;-75
2023/12/04 04:07:18;;;;;;;33.63;21.58;;;-3.60;1.00;;;;;;5151309;27;20247;-75
2023/12/04 04:09:46;;;;;;;30.67;20.65;;;-3.60;1.00;;;;;;5151938;27;20263;-76
2023/12/04 04:12:13;;;;;;;35.70;21.83;;;-3.60;1.00;;;;;;5151734;27;20233;-76
2023/12/04 04:14:40;;;;;;;32.25;20.10;;;-3.60;1.00;;;;;;5156116;27;20267;-75
2023/12/04 04:17:07;;;;;;;35.17;21.15;;;-3.60;1.00;;;;;;5159360;27;20233;-76
2023/12/04 04:19:35;;;;;;;30.90;21.42;;;-3.60;1.00;;;;;;5157216;27;20238;-74
2023/12/04 04:22:02;;;;;;;34.22;21.70;;;-3.60;1.00;;;;;;5152885;27;20226;-75
2023/12/04 04:24:30;;;;;;;27.88;19.55;;;-3.60;1.00;;;;;;5154467;27;21078;-75
2023/12/04 04:26:59;;;;;;;29.58;19.90;;;-3.70;1.00;;;;;;5152764;27;20244;-76
2023/12/04 04:29:28;;;;;;;29.75;21.00;;;-3.70;1.00;;;;;;5156949;27;20267;-77
2023/12/04 04:31:54;;;;;;;32.90;21.40;;;-3.60;1.00;;;;;;5154156;27;20234;-77
2023/12/04 04:34:22;;;;;;;30.27;20.55;;;-3.60;1.00;;;;;;5154610;27;20230;-79
2023/12/04 04:36:50;;;;;;;36.03;21.45;;;-3.60;1.00;;;;;;5155190;27;20264;-78
2023/12/04 04:39:18;;;;;;;31.27;19.80;;;-3.60;1.00;;;;;;5153947;27;20235;-76
2023/12/04 04:41:47;;;;;;;31.38;20.05;;;-3.60;1.00;;;;;;5154888;27;20237;-76
2023/12/04 04:44:18;;;;;;;31.65;20.58;;;-3.60;1.00;;;;;;5153669;27;20233;-78
2023/12/04 04:46:48;;;;;;;29.30;19.10;;;-3.50;1.00;;;;;;5154406;27;20266;-77
2023/12/04 04:49:17;;;;;;;33.70;21.27;;;-3.50;1.00;;;;;;5153638;27;20299;-77
2023/12/04 04:51:46;;;;;;;28.45;20.48;;;-3.60;1.00;;;;;;5158031;27;20244;-79
2023/12/04 04:54:13;;;;;;;34.42;20.83;;;-3.60;1.00;;;;;;5151688;27;20239;-77
2023/12/04 04:56:41;;;;;;;32.97;20.40;;;-3.60;1.00;;;;;;5154405;27;20229;-76
2023/12/04 04:59:08;;;;;;;33.10;20.60;;;-3.60;1.00;;;;;;5152762;27;20264;-77
2023/12/04 05:01:39;;;;;;;29.25;19.60;;;-3.60;1.00;;;;;;5152637;27;20321;-74
2023/12/04 05:04:08;;;;;;;32.42;20.25;;;-3.60;1.00;;;;;;5144144;27;21019;-77
2023/12/04 05:06:39;;;;;;;35.38;21.20;;;-3.60;1.00;;;;;;5158303;27;20277;-77
2023/12/04 05:09:06;;;;;;;32.78;21.35;;;-3.50;1.00;;;;;;5155816;27;20317;-76
2023/12/04 05:11:35;;;;;;;28.90;20.45;;;-3.50;1.00;;;;;;5146365;27;21002;-76
2023/12/04 05:14:05;;;;;;;30.23;20.98;;;-3.50;1.00;;;;;;5151457;27;20231;-77
2023/12/04 05:16:32;;;;;;;29.75;19.55;;;-3.50;1.00;;;;;;5150558;27;20230;-76
2023/12/04 05:19:00;;;;;;;27.13;21.38;;;-3.50;1.00;;;;;;5152322;27;20239;-77
2023/12/04 05:21:35;;;;;;;32.15;21.20;;;-3.50;1.00;;;;;;5150412;27;20575;-77
2023/12/04 05:24:02;;;;;;;31.77;20.75;;;-3.50;1.00;;;;;;5156588;27;20795;-79
2023/12/04 05:26:29;;;;;;;27.60;18.88;;;-3.50;1.00;;;;;;5154636;27;20269;-76
2023/12/04 05:28:56;;;;;;;26.83;20.55;;;-3.50;1.00;;;;;;5156371;27;20237;-77
2023/12/04 05:31:24;;;;;;;31.02;20.90;;;-3.50;1.00;;;;;;5155146;27;20287;-76
2023/12/04 05:33:51;;;;;;;31.58;20.77;;;-3.50;1.00;;;;;;5155112;27;20245;-76
2023/12/04 05:36:21;;;;;;;36.42;22.85;;;-3.50;1.00;;;;;;5153775;27;20328;-77
2023/12/04 05:38:48;;;;;;;28.63;18.90;;;-3.50;1.00;;;;;;5151659;27;20227;-76
2023/12/04 05:41:15;;;;;;;28.45;20.52;;;-3.50;1.00;;;;;;5154240;27;20369;-77
2023/12/04 05:43:42;;;;;;;31.50;21.95;;;-3.50;1.00;;;;;;5155351;27;21101;-77
2023/12/04 05:46:09;;;;;;;30.23;19.75;;;-3.60;1.00;;;;;;5152850;27;20269;-75
2023/12/04 05:48:38;;;;;;;31.08;20.88;;;-3.60;1.00;;;;;;5150741;27;21130;-77
2023/12/04 05:51:11;;;;;;;34.35;22.73;;;-3.60;1.00;;;;;;5149827;27;20226;-76
2023/12/04 05:53:40;;;;;;;30.00;19.77;;;-3.60;1.00;;;;;;5155510;27;20301;-76
2023/12/04 05:56:09;;;;;;;34.22;21.60;;;-3.60;1.00;;;;;;5152060;27;20254;-76
2023/12/04 05:58:39;;;;;;;34.13;20.63;;;-3.60;1.00;;;;;;5154400;27;20264;-77
2023/12/04 06:01:07;;;;;;;35.53;22.70;;;-3.60;1.00;;;;;;5152627;27;20302;-76
2023/12/04 06:03:34;;;;;;;29.13;20.77;;;-3.50;1.00;;;;;;5156152;27;20243;-79
2023/12/04 06:06:01;;;;;;;30.88;22.25;;;-3.40;1.00;;;;;;5156861;27;20636;-80
2023/12/04 06:08:28;;;;;;;27.83;20.92;;;-3.40;1.00;;;;;;5154783;27;20344;-79
2023/12/04 06:10:57;;;;;;;32.58;21.15;;;-3.30;1.00;;;;;;5165101;27;20724;-79
2023/12/04 06:13:26;;;;;;;33.58;21.00;;;-3.30;1.00;;;;;;5155817;27;20229;-80
2023/12/04 06:15:54;;;;;;;25.02;18.85;;;-3.20;1.00;;;;;;5157258;27;20234;-80
2023/12/04 06:18:21;;;;;;;34.15;19.58;;;-3.20;1.00;;;;;;5156880;27;20295;-78
2023/12/04 06:20:48;;;;;;;27.83;19.83;;;-3.10;1.00;;;;;;5148786;27;20286;-78
2023/12/04 06:23:24;;;;;;;29.50;21.02;;;-3.10;1.00;;;;;;5156772;27;21037;-79
2023/12/04 06:25:51;;;;;;;28.73;19.05;;;-3.00;1.00;;;;;;5159486;27;20237;-79
2023/12/04 06:28:21;;;;;;;29.63;20.55;;;-2.90;1.00;;;;;;5149485;27;20238;-79
2023/12/04 06:30:49;;;;;;;27.08;19.30;;;-3.00;1.00;;;;;;5151648;27;20277;-80
2023/12/04 06:33:18;;;;;;;37.83;26.50;;;-2.90;1.00;;;;;;5153910;27;20272;-80
2023/12/04 06:35:47;;;;;;;28.00;19.25;;;-2.90;1.00;;;;;;5146597;27;20800;-79
2023/12/04 06:38:20;;;;;;;26.38;19.45;;;-2.90;1.00;;;;;;5149272;27;20245;-78
2023/12/04 06:40:48;;;;;;;28.38;18.38;;;-2.90;1.00;;;;;;5153300;27;20238;-78
2023/12/04 06:43:22;;;;;;;30.83;20.80;;;-2.80;1.00;;;;;;5155546;27;20238;-81
2023/12/04 06:45:51;;;;;;;28.45;20.30;;;-2.80;1.00;;;;;;5151276;27;20240;-80
2023/12/04 06:48:18;;;;;;;28.10;19.48;;;-2.80;1.00;;;;;;5149601;27;20261;-80
2023/12/04 06:50:46;;;;;;;34.78;21.38;;;-2.70;1.00;;;;;;5168991;27;20234;-81
2023/12/04 06:53:14;;;;;;;30.75;19.15;;;-2.70;1.00;;;;;;5154273;27;20292;-81
2023/12/04 06:55:41;;;;;;;30.10;20.45;;;-2.70;1.00;;;;;;5154650;27;21034;-80
2023/12/04 06:58:08;;;;;;;30.73;20.25;;;-2.70;1.00;;;;;;5154862;27;21089;-81
2023/12/04 07:00:37;;;;;;;29.75;20.88;;;-2.60;1.00;;;;;;5155769;27;20249;-79
2023/12/04 07:03:06;;;;;;;29.30;19.13;;;-2.70;1.00;;;;;;5157037;27;20238;-79
2023/12/04 07:05:33;;;;;;;27.60;18.98;;;-2.60;1.00;;;;;;5154889;27;20286;-80
2023/12/04 07:08:03;;;;;;;28.58;19.20;;;-2.70;1.00;;;;;;5154735;27;20310;-80
2023/12/04 07:10:30;;;;;;;27.63;18.38;;;-2.70;1.00;;;;;;5153408;27;20284;-79
2023/12/04 07:12:58;;;;;;;31.33;19.90;;;-2.70;1.00;;;;;;5154452;27;20234;-79
2023/12/04 07:15:27;;;;;;;31.70;20.33;;;-2.60;1.00;;;;;;5152605;27;20233;-82
2023/12/04 07:17:55;;;;;;;29.50;20.00;;;-2.50;1.00;;;;;;5150059;27;20306;-79
2023/12/04 07:20:26;;;;;;;29.58;18.52;;;-2.60;1.00;;;;;;5155144;27;20312;-79
2023/12/04 07:22:55;;;;;;;30.25;19.95;;;-2.60;1.00;;;;;;5143769;27;20302;-79
2023/12/04 07:25:27;;;;;;;28.92;20.33;;;-2.60;1.00;;;;;;5165494;27;20283;-79
2023/12/04 07:27:54;;;;;;;28.00;19.98;;;-2.50;1.00;;;;;;5149428;27;20218;-78
2023/12/04 07:30:22;;;;;;;25.38;19.27;;;-2.50;1.00;;;;;;5152563;27;20286;-78
2023/12/04 07:32:49;;;;;;;22.30;17.23;;;-2.40;1.00;;;;;;5151111;27;20231;-77
2023/12/04 07:35:19;;;;;;;26.45;18.17;;;-2.40;1.00;;;;;;5153096;27;20237;-81
2023/12/04 07:37:49;;;;;;;27.15;17.88;;;-2.40;1.00;;;;;;5148971;27;20241;-79
2023/12/04 07:40:17;;;;;;;29.00;19.70;;;-2.30;1.00;;;;;;5152687;27;20302;-79
2023/12/04 07:42:44;;;;;;;25.55;18.10;;;-2.30;1.00;;;;;;5148445;27;20234;-81
2023/12/04 07:45:13;;;;;;;29.88;19.70;;;-2.20;1.00;;;;;;5148701;27;20230;-79
2023/12/04 07:47:41;;;;;;;29.63;19.27;;;-2.20;1.00;;;;;;5149556;27;20332;-78
2023/12/04 07:50:08;;;;;;;26.90;19.13;;;-2.20;1.00;;;;;;5152251;27;20235;-80
2023/12/04 07:52:37;;;;;;;27.00;17.75;;;-2.10;1.00;;;;;;5154483;27;20745;-79
2023/12/04 07:55:07;;;;;;;26.27;17.23;;;-2.10;1.00;;;;;;5151267;27;20290;-79
2023/12/04 07:57:34;;;;;;;28.35;18.50;;;-2.00;1.00;;;;;;5152953;27;20233;-80
2023/12/04 08:00:03;;;;;;;30.05;18.00;;;-2.00;1.00;;;;;;5152567;27;20242;-79
2023/12/04 08:02:32;;;;;;;26.88;18.02;;;-2.00;1.00;;;;;;5153954;27;20709;-79
2023/12/04 08:05:00;;;;;;;28.42;17.55;;;-1.90;1.00;;;;;;5147695;27;20240;-80
2023/12/04 08:07:27;;;;;;;29.10;19.85;;;-1.80;1.00;;;;;;5153758;27;20244;-80
2023/12/04 08:09:54;;;;;;;33.72;23.40;;;-1.70;1.00;;;;;;5152615;27;20230;-79
2023/12/04 08:12:22;;;;;;;30.27;21.15;;;-1.70;1.00;;;;;;5155663;27;20972;-81
2023/12/04 08:14:50;;;;;;;31.48;20.98;;;-1.50;1.00;;;;;;5152965;27;20271;-79
2023/12/04 08:17:18;;;;;;;28.55;19.50;;;-1.50;1.00;;;;;;5152248;27;20564;-79
2023/12/04 08:19:49;;;;;;;28.35;18.40;;;-1.50;1.00;;;;;;5152895;27;20229;-80
2023/12/04 08:22:16;;;;;;;26.15;19.50;;;-1.40;1.00;;;;;;5151476;27;20233;-79
2023/12/04 08:24:44;;;;;;;27.38;18.75;;;-1.30;1.00;;;;;;5157463;27;20263;-79
2023/12/04 08:27:11;;;;;;;27.15;19.35;;;-1.20;1.00;;;;;;5155206;27;20329;-79
2023/12/04 08:29:40;;;;;;;26.05;17.67;;;-1.20;1.00;;;;;;5148504;27;20227;-80
2023/12/04 08:32:07;;;;;;;27.00;17.65;;;-1.10;1.00;;;;;;5147590;27;20325;-80
2023/12/04 08:34:35;;;;;;;26.25;18.20;;;-1.10;1.00;;;;;;5153390;27;20286;-79
2023/12/04 08:37:04;;;;;;;25.75;17.98;;;-1.00;1.00;;;;;;5148928;27;20230;-80
2023/12/04 08:39:31;;;;;;;22.92;16.88;;;-0.90;1.00;;;;;;5151851;27;20234;-78
2023/12/04 08:42:00;;;;;;;24.40;17.88;;;-0.90;1.00;;;;;;5150892;27;20229;-78
2023/12/04 08:44:28;;;;;;;27.50;18.60;;;-1.00;1.00;;;;;;5149412;27;20302;-80
2023/12/04 08:47:00;;;;;;;26.83;18.33;;;-1.00;1.00;;;;;;5151680;27;20233;-80
2023/12/04 08:49:28;;;;;;;30.05;20.50;;;-0.90;1.00;;;;;;5152345;27;20230;-80
2023/12/04 08:51:55;;;;;;;24.45;17.90;;;-0.90;1.00;;;;;;5154036;27;20329;-79
2023/12/04 08:54:22;;;;;;;25.40;18.05;;;-0.90;1.00;;;;;;5154872;27;20610;-79
2023/12/04 08:56:49;;;;;;;24.35;17.80;;;-0.70;1.00;;;;;;5152118;27;20230;-79
2023/12/04 08:59:17;;;;;;;25.50;18.33;;;-0.70;1.00;;;;;;5154412;27;20241;-79
2023/12/04 09:01:44;;;;;;;24.45;17.75;;;-0.60;1.00;;;;;;5156300;27;20240;-80
2023/12/04 09:04:13;;;;;;;22.33;17.80;;;-0.50;1.00;;;;;;5153872;27;20320;-80
2023/12/04 09:06:41;;;;;;;24.23;17.25;;;-0.60;1.00;;;;;;5160028;27;22149;-80
2023/12/04 09:09:08;;;;;;;25.38;18.40;;;-0.60;1.00;;;;;;5153756;27;20290;-80
2023/12/04 09:11:35;;;;;;;23.95;16.58;;;-0.50;1.00;;;;;;5158546;27;20242;-78
2023/12/04 09:14:04;;;;;;;23.67;17.17;;;-0.50;1.00;;;;;;5155270;27;20302;-79
2023/12/04 09:16:33;;;;;;;21.50;16.20;;;-0.60;1.00;;;;;;5153408;27;20233;-79
2023/12/04 09:19:00;;;;;;;21.17;15.55;;;-0.50;1.00;;;;;;5155174;27;20214;-79
2023/12/04 09:21:28;;;;;;;18.15;14.15;;;-0.50;1.00;;;;;;5154648;27;20241;-79
2023/12/04 09:23:55;;;;;;;22.27;16.08;;;-0.50;1.00;;;;;;5156385;27;20238;-79
2023/12/04 09:26:23;;;;;;;23.13;16.60;;;-0.60;1.00;;;;;;5151551;27;20324;-79
2023/12/04 09:28:51;;;;;;;25.63;16.15;;;-0.60;1.00;;;;;;5151199;27;20231;-79
2023/12/04 09:31:19;;;;;;;21.25;17.35;;;-0.50;1.00;;;;;;5156343;27;20242;-78
2023/12/04 09:33:47;;;;;;;21.67;15.70;;;-0.60;1.00;;;;;;5158244;27;20246;-78
2023/12/04 09:36:14;;;;;;;19.05;15.10;;;-0.50;1.00;;;;;;5153944;27;21164;-78
2023/12/04 09:38:45;;;;;;;21.23;16.05;;;-0.60;1.00;;;;;;5153375;27;20230;-79
2023/12/04 09:41:13;;;;;;;21.55;16.70;;;-0.50;1.00;;;;;;5151849;27;20681;-78
2023/12/04 09:43:42;;;;;;;19.88;16.60;;;-0.40;1.00;;;;;;5153319;27;20318;-80
2023/12/04 09:46:10;;;;;;;19.38;15.38;;;-0.40;1.00;;;;;;5153892;27;20321;-78
2023/12/04 09:48:38;;;;;;;21.98;15.90;;;-0.20;1.00;;;;;;5154557;27;20226;-79
2023/12/04 09:51:06;;;;;;;18.70;15.25;;;-0.20;1.00;;;;;;5155262;27;20240;-79
2023/12/04 09:53:34;;;;;;;24.88;17.55;;;-0.20;1.00;;;;;;5153770;27;20307;-80
2023/12/04 09:56:04;;;;;;;21.45;15.63;;;-0.20;1.00;;;;;;5158676;27;20293;-79
2023/12/04 09:58:33;;;;;;;18.92;13.90;;;-0.10;1.00;;;;;;5151005;27;20230;-79
2023/12/04 10:01:02;;;;;;;18.83;14.45;;;0.00;1.00;;;;;;5155790;27;20693;-79
2023/12/04 10:03:30;;;;;;;20.33;15.25;;;0.00;1.00;;;;;;5153578;27;20290;-79
2023/12/04 10:05:57;;;;;;;18.92;15.15;;;-0.10;1.00;;;;;;5155593;27;20931;-79
2023/12/04 10:08:25;;;;;;;19.25;14.68;;;-0.10;1.00;;;;;;5155110;27;20941;-79
2023/12/04 10:10:52;;;;;;;17.70;14.77;;;-0.10;1.00;;;;;;5156501;27;21162;-79
2023/12/04 10:13:21;;;;;;;19.50;14.38;;;0.00;1.00;;;;;;5155884;27;20263;-79
2023/12/04 10:15:51;;;;;;;19.75;14.27;;;0.20;1.00;;;;;;5152889;27;20746;-77
2023/12/04 10:18:30;;;;;;;19.55;13.77;;;0.30;1.00;;;;;;5151955;27;20735;-78
2023/12/04 10:20:58;;;;;;;16.70;13.30;;;0.40;1.00;;;;;;5154005;27;20241;-77
2023/12/04 10:23:39;;;;;;;18.80;13.93;;;0.30;1.00;;;;;;5153577;27;20297;-77
2023/12/04 10:26:07;;;;;;;15.85;12.40;;;0.20;1.00;;;;;;5152126;27;20234;-78
2023/12/04 10:28:38;;;;;;;18.08;13.18;;;0.30;1.00;;;;;;5158605;27;20234;-77
2023/12/04 10:31:06;;;;;;;14.90;12.48;;;0.20;1.00;;;;;;5149838;27;20249;-78
2023/12/04 10:33:36;;;;;;;16.60;13.10;;;0.30;1.00;;;;;;5153267;27;20221;-78
2023/12/04 10:36:04;;;;;;;18.13;13.85;;;0.40;1.00;;;;;;5151412;27;21114;-78
2023/12/04 10:38:31;;;;;;;19.73;12.50;;;0.30;1.00;;;;;;5155199;27;20343;-78
2023/12/04 10:41:14;;;;;;;17.33;13.43;;;0.30;1.00;;;;;;5154890;27;20233;-77
2023/12/04 10:43:52;;;;;;;19.15;12.70;;;0.40;1.00;;;;;;5155475;27;20778;-77
2023/12/04 10:46:21;;;;;;;17.80;13.48;;;0.60;1.00;;;;;;5153977;27;21127;-78
2023/12/04 10:48:49;;;;;;;15.88;12.70;;;0.60;1.00;;;;;;5153862;27;20233;-76
2023/12/04 10:51:18;;;;;;;17.88;12.73;;;0.80;1.00;;;;;;5155870;27;21300;-76
2023/12/04 10:53:47;;;;;;;18.23;13.30;;;0.70;1.00;;;;;;5154465;27;20226;-77
2023/12/04 10:56:20;;;;;;;16.17;11.88;;;0.90;1.00;;;;;;5154837;27;21720;-77
2023/12/04 10:58:52;;;;;;;17.65;13.15;;;1.20;1.00;;;;;;5153997;27;20326;-78
2023/12/04 11:01:23;;;;;;;15.20;11.35;;;1.20;1.00;;;;;;5147779;27;20252;-77
2023/12/04 11:03:53;;;;;;;17.98;12.38;;;1.30;1.00;;;;;;5152232;27;20288;-77
2023/12/04 11:06:24;;;;;;;16.38;13.32;;;1.30;1.00;;;;;;5150507;27;21208;-78
2023/12/04 11:08:57;;;;;;;14.85;11.95;;;1.20;1.00;;;;;;5168344;27;20674;-77
2023/12/04 11:11:34;;;;;;;14.32;11.00;;;1.20;1.00;;;;;;5151791;27;20245;-79
2023/12/04 11:14:10;;;;;;;14.75;12.30;;;1.20;1.00;;;;;;5150805;27;20290;-76
2023/12/04 11:16:46;;;;;;;18.67;13.32;;;1.30;1.00;;;;;;5151399;27;20229;-77
2023/12/04 11:19:19;;;;;;;14.70;12.30;;;1.30;1.00;;;;;;5141797;27;20334;-77
2023/12/04 11:21:48;;;;;;;16.95;12.93;;;1.30;1.00;;;;;;5159756;27;20311;-77
2023/12/04 11:24:18;;;;;;;16.50;12.02;;;1.30;1.00;;;;;;5153821;27;20242;-77
2023/12/04 11:26:45;;;;;;;15.98;12.07;;;1.00;1.00;;;;;;5150785;27;20280;-76
2023/12/04 11:29:14;;;;;;;17.10;12.30;;;1.10;1.00;;;;;;5138867;27;20584;-77
2023/12/04 11:31:45;;;;;;;14.25;12.25;;;1.10;1.00;;;;;;5156265;27;20274;-76
2023/12/04 11:34:14;;;;;;;14.18;11.82;;;1.30;1.00;;;;;;5153524;27;20234;-77
2023/12/04 11:36:41;;;;;;;16.17;11.88;;;1.40;1.00;;;;;;5150272;27;20238;-78
2023/12/04 11:39:11;;;;;;;22.33;13.00;;;1.40;1.00;;;;;;5150905;27;20273;-77
2023/12/04 11:41:41;;;;;;;13.07;11.10;;;1.50;1.00;;;;;;5148235;27;20279;-76
2023/12/04 11:44:15;;;;;;;16.05;12.43;;;1.50;1.00;;;;;;5149813;27;21101;-77
2023/12/04 11:46:56;;;;;;;12.68;10.65;;;1.50;1.00;;;;;;5153911;27;20244;-78
2023/12/04 11:49:30;;;;;;;15.43;12.35;;;1.50;1.00;;;;;;5155054;27;20233;-78
2023/12/04 11:52:04;;;;;;;17.20;11.90;;;1.40;1.00;;;;;;5152257;27;20262;-79
2023/12/04 11:54:58;;;;;;;13.18;11.57;;;1.50;1.00;;;;;;5150976;27;20261;-78
2023/12/04 11:57:25;;;;;;;12.00;10.13;;;1.70;1.00;;;;;;5151354;27;21104;-78
2023/12/04 12:00:14;;;;;;;15.57;11.43;;;1.70;1.00;;;;;;5149461;27;20726;-79
2023/12/04 12:02:49;;;;;;;13.02;9.68;;;1.90;1.00;;;;;;5150430;27;20233;-80
2023/12/04 12:05:18;;;;;;;15.07;12.43;;;2.00;1.00;;;;;;5152365;27;20732;-79
2023/12/04 12:07:45;;;;;;;15.80;11.32;;;2.10;1.00;;;;;;5156375;27;20295;-79
2023/12/04 12:10:13;;;;;;;14.07;12.23;;;2.30;1.00;;;;;;5150661;27;20237;-78
2023/12/04 12:12:41;;;;;;;12.45;10.80;;;2.20;1.00;;;;;;5149827;27;20294;-79
2023/12/04 12:15:12;;;;;;;14.98;11.57;;;2.20;1.00;;;;;;5154423;27;20238;-79
2023/12/04 12:17:39;;;;;;;17.80;11.80;;;2.10;1.00;;;;;;5150827;27;20238;-79
2023/12/04 12:20:09;;;;;;;14.35;11.27;;;2.10;1.00;;;;;;5155039;27;20240;-79
2023/12/04 12:22:41;;;;;;;12.88;10.63;;;1.80;1.00;;;;;;5147606;27;20336;-80
2023/12/04 12:25:09;;;;;;;14.05;10.45;;;1.60;1.00;;;;;;5158306;27;20234;-80
2023/12/04 12:27:36;;;;;;;15.27;12.02;;;1.50;1.00;;;;;;5154468;27;20265;-79
2023/12/04 12:30:07;;;;;;;15.55;11.50;;;1.50;1.00;;;;;;5149700;27;20281;-79
2023/12/04 12:32:37;;;;;;;12.25;10.75;;;1.50;1.00;;;;;;5155864;27;20754;-79
2023/12/04 12:35:04;;;;;;;14.80;11.20;;;1.60;1.00;;;;;;5153868;27;20227;-79
2023/12/04 12:37:31;;;;;;;14.50;11.32;;;1.40;1.00;;;;;;5157982;27;20271;-79
2023/12/04 12:40:00;;;;;;;15.00;11.75;;;1.30;1.00;;;;;;5154801;27;20234;-78
2023/12/04 12:42:31;;;;;;;14.18;11.25;;;1.30;1.00;;;;;;5157857;27;20994;-79
2023/12/04 12:45:02;;;;;;;14.10;10.90;;;1.10;1.00;;;;;;5155676;27;20242;-78